createdAt,value
2019-05-02T00:04:22.689Z,58.71
2019-05-02T00:09:28.620Z,58.50
2019-05-02T00:14:34.773Z,58.48
2019-05-02T00:19:40.141Z,59.98
2019-05-02T00:24:45.682Z,58.96
2019-05-02T00:29:53.785Z,59.26
2019-05-02T00:34:58.198Z,58.70
2019-05-02T00:40:03.551Z,58.74
2019-05-02T00:45:08.735Z,59.28
2019-05-02T00:50:14.147Z,59.43
2019-05-02T00:55:19.648Z,59.78
2019-05-02T01:00:25.885Z,59.68
2019-05-02T01:05:33.861Z,59.75
2019-05-02T01:10:38.222Z,60.13
2019-05-02T01:15:44.129Z,60.31
2019-05-02T01:20:49.610Z,60.77
2019-05-02T01:25:54.872Z,60.94
2019-05-02T01:31:18.370Z,61.12
2019-05-02T01:36:28.323Z,60.89
2019-05-02T01:41:33.578Z,61.67
2019-05-02T01:46:39.101Z,61.59
2019-05-02T01:51:47.661Z,61.50
2019-05-02T01:56:51.290Z,61.41
2019-05-02T02:01:57.946Z,61.24
2019-05-02T02:07:03.437Z,62.25
2019-05-02T02:12:09.861Z,62.47
2019-05-02T02:17:17.286Z,62.37
2019-05-02T02:22:39.334Z,62.33
2019-05-02T02:27:41.412Z,62.20
2019-05-02T02:32:46.762Z,62.54
2019-05-02T02:37:55.134Z,62.21
2019-05-02T02:43:13.020Z,62.40
2019-05-02T02:48:06.074Z,62.40
2019-05-02T02:53:11.269Z,62.92
2019-05-02T02:58:16.438Z,63.09
2019-05-02T03:03:27.782Z,63.17
2019-05-02T03:08:28.486Z,63.50
2019-05-02T03:13:53.374Z,63.23
2019-05-02T03:18:57.138Z,63.30
2019-05-02T03:24:05.622Z,64.09
2019-05-02T03:29:09.582Z,63.84
2019-05-02T03:34:15.266Z,64.93
2019-05-02T03:39:20.470Z,64.45
2019-05-02T03:44:26.774Z,65.19
2019-05-02T03:49:32.604Z,64.69
2019-05-02T03:54:48.346Z,65.53
2019-05-02T03:59:44.801Z,65.76
2019-05-02T04:04:54.209Z,65.64
2019-05-02T04:09:59.008Z,66.06
2019-05-02T04:15:09.388Z,66.23
2019-05-02T04:20:12.879Z,66.61
2019-05-02T04:25:20.152Z,66.86
2019-05-02T04:30:25.309Z,67.07
2019-05-02T04:35:34.889Z,66.88
2019-05-02T04:40:41.756Z,67.27
2019-05-02T04:45:55.724Z,67.70
2019-05-02T04:51:02.017Z,67.40
2019-05-02T04:56:06.961Z,67.70
2019-05-02T05:01:10.146Z,67.79
2019-05-02T05:06:14.952Z,67.65
2019-05-02T05:11:24.719Z,67.83
2019-05-02T05:16:28.664Z,67.59
2019-05-02T05:21:34.307Z,68.10
2019-05-02T05:26:43.040Z,68.02
2019-05-02T05:31:48.366Z,67.37
2019-05-02T05:36:53.479Z,67.33
2019-05-02T05:41:58.775Z,67.25
2019-05-02T05:47:04.091Z,66.25
2019-05-02T05:52:09.466Z,65.05
2019-05-02T05:57:17.449Z,65.17
2019-05-02T06:02:22.018Z,65.25
2019-05-02T06:07:27.856Z,65.12
2019-05-02T06:12:35.547Z,64.56
2019-05-02T06:17:41.693Z,64.13
2019-05-02T06:22:46.927Z,64.59
2019-05-02T06:27:52.496Z,63.48
2019-05-02T06:32:57.903Z,63.59
2019-05-02T06:38:03.140Z,63.41
2019-05-02T06:43:09.799Z,62.72
2019-05-02T06:48:17.646Z,62.58
2019-05-02T06:53:22.835Z,62.45
2019-05-02T06:58:28.128Z,61.72
2019-05-02T07:03:33.365Z,61.20
2019-05-02T07:08:39.861Z,61.39
2019-05-02T07:13:45.200Z,59.65
2019-05-02T07:18:53.717Z,60.26
2019-05-02T07:23:59.030Z,59.36
2019-05-02T07:29:08.672Z,59.35
2019-05-02T07:34:14.208Z,60.03
2019-05-02T07:39:19.635Z,58.56
2019-05-02T07:44:27.239Z,59.08
2019-05-02T07:49:33.912Z,58.67
2019-05-02T07:54:38.882Z,58.43
2019-05-02T07:59:44.239Z,57.37
2019-05-02T08:04:50.558Z,56.54
2019-05-02T08:09:55.835Z,55.98
2019-05-02T08:15:01.812Z,56.80
2019-05-02T08:20:08.687Z,55.87
2019-05-02T08:25:15.736Z,55.99
2019-05-02T08:30:25.003Z,55.75
2019-05-02T08:35:31.220Z,56.00
2019-05-02T08:40:37.591Z,54.75
2019-05-02T08:45:42.836Z,54.30
2019-05-02T08:50:48.068Z,54.17
2019-05-02T08:55:53.313Z,53.23
2019-05-02T09:00:58.865Z,52.33
2019-05-02T09:06:05.881Z,52.24
2019-05-02T09:11:14.569Z,52.69
2019-05-02T09:16:26.444Z,52.54
2019-05-02T09:21:26.624Z,52.48
2019-05-02T09:26:37.959Z,52.27
2019-05-02T09:31:42.152Z,50.90
2019-05-02T09:36:47.338Z,49.80
2019-05-02T09:41:52.861Z,51.60
2019-05-02T09:46:58.944Z,48.09
2019-05-02T09:52:04.227Z,48.71
2019-05-02T09:57:09.472Z,45.95
2019-05-02T10:02:15.561Z,47.42
2019-05-02T10:07:22.262Z,46.67
2019-05-02T10:12:27.597Z,45.61
2019-05-02T10:17:37.521Z,45.88
2019-05-02T10:22:41.912Z,44.96
2019-05-02T10:27:49.679Z,46.29
2019-05-02T10:32:57.374Z,45.11
2019-05-02T10:38:03.173Z,44.02
2019-05-02T10:43:11.710Z,45.33
2019-05-02T10:48:25.873Z,46.30
2019-05-02T10:53:23.799Z,45.98
2019-05-02T10:58:34.125Z,45.59
2019-05-02T11:03:43.791Z,45.16
2019-05-02T11:08:47.729Z,44.94
2019-05-02T11:14:05.895Z,44.72
2019-05-02T11:19:14.273Z,43.64
2019-05-02T11:24:19.511Z,44.79
2019-05-02T11:29:25.708Z,43.31
2019-05-02T11:34:32.644Z,44.55
2019-05-02T11:39:47.791Z,45.12
2019-05-02T11:44:45.428Z,44.81
2019-05-02T11:49:55.620Z,46.89
2019-05-02T11:54:59.030Z,44.94
2019-05-02T12:00:08.836Z,45.38
2019-05-02T12:05:14.595Z,45.88
2019-05-02T12:10:21.632Z,44.69
2019-05-02T12:15:27.600Z,44.84
2019-05-02T12:20:36.494Z,45.54
2019-05-02T12:25:39.924Z,45.12
2019-05-02T12:30:45.174Z,42.35
2019-05-02T12:35:52.595Z,43.73
2019-05-02T12:40:58.060Z,42.74
2019-05-02T12:46:03.336Z,43.10
2019-05-02T12:51:08.613Z,42.69
2019-05-02T12:56:13.855Z,42.97
2019-05-02T13:01:19.119Z,43.02
2019-05-02T13:06:24.663Z,42.26
2019-05-02T13:11:43.959Z,41.84
2019-05-02T13:16:46.069Z,42.46
2019-05-02T13:22:25.433Z,41.33
2019-05-02T13:27:32.264Z,41.13
2019-05-02T13:32:39.565Z,40.16
2019-05-02T13:37:46.150Z,40.37
2019-05-02T13:42:52.361Z,42.19
2019-05-02T13:47:57.604Z,42.24
2019-05-02T13:53:02.896Z,42.76
2019-05-02T13:58:08.128Z,41.73
2019-05-02T14:03:14.052Z,40.42
2019-05-02T14:08:36.717Z,43.31
2019-05-02T14:13:39.130Z,41.89
2019-05-02T14:18:44.381Z,43.40
2019-05-02T14:23:51.685Z,42.89
2019-05-02T14:28:56.649Z,42.28
2019-05-02T14:34:21.691Z,41.83
2019-05-02T14:39:28.313Z,40.22
2019-05-02T14:45:01.379Z,40.42
2019-05-02T14:49:42.811Z,41.76
2019-05-02T14:54:48.210Z,41.45
2019-05-02T14:59:59.095Z,42.03
2019-05-02T15:05:02.034Z,41.46
2019-05-02T15:10:07.954Z,42.17
2019-05-02T15:15:13.164Z,41.93
2019-05-02T15:20:18.519Z,43.10
2019-05-02T15:25:23.759Z,43.51
2019-05-02T15:30:29.016Z,42.77
2019-05-02T15:36:07.311Z,42.87
2019-05-02T15:41:12.837Z,43.67
2019-05-02T15:46:22.757Z,44.04
2019-05-02T15:51:23.796Z,42.65
2019-05-02T15:56:29.400Z,42.56
2019-05-02T16:01:47.334Z,42.87
2019-05-02T16:06:48.896Z,42.52
2019-05-02T16:11:56.951Z,41.80
2019-05-02T16:17:03.796Z,42.53
2019-05-02T16:22:17.068Z,41.66
2019-05-02T16:27:42.101Z,42.61
2019-05-02T16:32:55.117Z,41.39
2019-05-02T16:38:00.361Z,40.07
2019-05-02T16:43:05.799Z,40.96
2019-05-02T16:48:12.041Z,41.14
2019-05-02T16:53:22.519Z,41.98
2019-05-02T16:58:24.419Z,42.49
2019-05-02T17:03:36.682Z,42.55
2019-05-02T17:09:03.974Z,42.48
2019-05-02T17:14:11.975Z,42.96
2019-05-02T17:19:17.908Z,43.41
2019-05-02T17:24:26.123Z,42.96
2019-05-02T17:29:31.752Z,42.72
2019-05-02T17:34:37.153Z,42.05
2019-05-02T17:39:46.044Z,42.17
2019-05-02T17:44:51.884Z,41.55
2019-05-02T17:49:59.086Z,42.72
2019-05-02T17:55:04.996Z,43.25
2019-05-02T18:00:16.936Z,42.90
2019-05-02T18:05:26.461Z,44.08
2019-05-02T18:10:32.180Z,44.50
2019-05-02T18:15:37.091Z,44.84
2019-05-02T18:20:46.346Z,45.16
2019-05-02T18:25:49.591Z,44.96
2019-05-02T18:31:00.325Z,44.79
2019-05-02T18:36:02.191Z,45.23
2019-05-02T18:41:07.945Z,45.14
2019-05-02T18:46:14.187Z,45.06
2019-05-02T18:51:19.423Z,45.35
2019-05-02T18:56:24.787Z,45.09
2019-05-02T19:01:32.031Z,45.21
2019-05-02T19:06:37.743Z,45.20
2019-05-02T19:11:43.007Z,45.22
2019-05-02T19:16:48.708Z,45.42
2019-05-02T19:21:54.396Z,45.79
2019-05-02T19:26:59.723Z,45.75
2019-05-02T19:32:08.498Z,46.08
2019-05-02T19:37:13.739Z,46.22
2019-05-02T19:42:22.620Z,46.46
2019-05-02T19:47:26.563Z,46.72
2019-05-02T19:52:38.925Z,47.20
2019-05-02T19:57:39.123Z,48.78
2019-05-02T20:02:44.765Z,48.43
2019-05-02T20:07:51.959Z,48.49
2019-05-02T20:12:57.385Z,49.05
2019-05-02T20:18:04.618Z,49.86
2019-05-02T20:23:17.987Z,50.16
2019-05-02T20:28:17.269Z,50.94
2019-05-02T20:33:22.717Z,50.42
2019-05-02T20:38:27.964Z,51.71
2019-05-02T20:43:33.217Z,51.45
2019-05-02T20:48:39.376Z,51.94
2019-05-02T20:53:44.961Z,52.03
2019-05-02T20:58:50.201Z,53.50
2019-05-02T21:03:56.516Z,53.75
2019-05-02T21:09:11.829Z,53.57
2019-05-02T21:14:17.810Z,53.58
2019-05-02T21:19:23.500Z,53.33
2019-05-02T21:24:28.749Z,53.45
2019-05-02T21:29:35.152Z,53.35
2019-05-02T21:34:42.507Z,53.37
2019-05-02T21:39:48.201Z,54.01
2019-05-02T21:44:55.324Z,56.35
2019-05-02T21:50:15.684Z,57.65
2019-05-02T21:55:28.257Z,57.96
2019-05-02T22:00:52.752Z,57.66
2019-05-02T22:06:00.068Z,57.92
2019-05-02T22:11:05.464Z,57.94
2019-05-02T22:16:12.767Z,58.08
2019-05-02T22:21:18.635Z,58.49
2019-05-02T22:26:25.194Z,58.61
2019-05-02T22:31:32.410Z,59.11
2019-05-02T22:36:38.169Z,59.43
2019-05-02T22:41:43.323Z,59.89
2019-05-02T22:46:48.605Z,58.83
2019-05-02T22:51:53.761Z,58.82
2019-05-02T22:56:59.002Z,58.62
2019-05-02T23:02:04.364Z,59.40
2019-05-02T23:07:09.868Z,59.73
2019-05-02T23:12:15.068Z,60.41
2019-05-02T23:17:20.686Z,60.83
2019-05-02T23:22:26.255Z,61.17
2019-05-02T23:27:42.506Z,60.99
2019-05-02T23:32:48.130Z,61.11
2019-05-02T23:37:53.714Z,61.67
2019-05-02T23:42:58.966Z,62.31
2019-05-02T23:48:05.019Z,62.42
2019-05-02T23:53:12.734Z,62.49
2019-05-02T23:58:18.193Z,62.50
